createdAt,value
2022-11-30T00:00:34.098Z,17.02
2022-11-30T00:03:01.132Z,14.32
2022-11-30T00:05:28.046Z,16.45
2022-11-30T00:07:54.728Z,16.02
2022-11-30T00:10:22.373Z,17.10
2022-11-30T00:12:49.518Z,15.20
2022-11-30T00:15:17.554Z,14.80
2022-11-30T00:17:44.971Z,14.52
2022-11-30T00:20:13.041Z,15.63
2022-11-30T00:22:40.020Z,15.43
2022-11-30T00:25:07.124Z,14.43
2022-11-30T00:27:34.639Z,15.90
2022-11-30T00:30:01.297Z,13.27
2022-11-30T00:32:28.657Z,16.13
2022-11-30T00:34:55.719Z,9.07
2022-11-30T00:37:22.511Z,10.70
2022-11-30T00:39:49.201Z,10.98
2022-11-30T00:42:15.928Z,10.25
2022-11-30T00:44:42.542Z,12.60
2022-11-30T00:47:09.251Z,13.63
2022-11-30T00:49:35.934Z,13.32
2022-11-30T00:52:02.678Z,12.45
2022-11-30T00:54:29.311Z,14.80
2022-11-30T00:56:56.133Z,13.35
2022-11-30T00:59:22.835Z,13.23
2022-11-30T01:01:49.569Z,12.50
2022-11-30T01:04:16.254Z,12.30
2022-11-30T01:06:42.894Z,12.20
2022-11-30T01:09:09.517Z,13.18
2022-11-30T01:11:36.173Z,12.97
2022-11-30T01:14:02.909Z,12.18
2022-11-30T01:16:32.248Z,12.63
2022-11-30T01:18:59.682Z,12.32
2022-11-30T01:21:27.919Z,12.45
2022-11-30T01:23:55.353Z,11.67
2022-11-30T01:26:23.359Z,13.18
2022-11-30T01:28:51.471Z,13.02
2022-11-30T01:31:18.454Z,11.55
2022-11-30T01:33:49.511Z,11.23
2022-11-30T01:36:18.994Z,12.97
2022-11-30T01:38:51.448Z,12.43
2022-11-30T01:41:30.164Z,12.80
2022-11-30T01:43:59.104Z,12.27
2022-11-30T01:46:25.736Z,13.23
2022-11-30T01:49:06.762Z,12.77
2022-11-30T01:51:37.533Z,13.13
2022-11-30T01:54:06.438Z,13.10
2022-11-30T01:56:33.671Z,12.68
2022-11-30T01:59:00.454Z,14.57
2022-11-30T02:01:27.515Z,15.33
2022-11-30T02:04:06.716Z,16.40
2022-11-30T02:06:33.924Z,15.90
2022-11-30T02:09:01.182Z,16.30
2022-11-30T02:11:28.700Z,15.23
2022-11-30T02:14:23.917Z,17.00
2022-11-30T02:16:54.389Z,15.43
2022-11-30T02:19:58.666Z,15.85
2022-11-30T02:22:50.394Z,15.93
2022-11-30T02:25:58.471Z,14.45
2022-11-30T02:28:52.795Z,14.70
2022-11-30T02:31:23.718Z,16.23
2022-11-30T02:33:51.100Z,16.13
2022-11-30T02:36:18.195Z,15.88
2022-11-30T02:38:44.930Z,15.10
2022-11-30T02:41:11.555Z,14.17
2022-11-30T02:43:39.334Z,14.15
2022-11-30T02:46:21.312Z,15.25
2022-11-30T02:49:24.086Z,13.65
2022-11-30T02:51:52.031Z,13.95
2022-11-30T02:54:18.972Z,12.30
2022-11-30T02:56:45.690Z,9.30
2022-11-30T02:59:12.599Z,7.43
2022-11-30T03:01:40.078Z,7.22
2022-11-30T03:04:06.780Z,6.97
2022-11-30T03:06:33.417Z,6.60
2022-11-30T03:09:00.148Z,6.30
2022-11-30T03:11:26.867Z,6.00
2022-11-30T03:13:53.539Z,6.05
2022-11-30T03:16:20.226Z,6.47
2022-11-30T03:18:46.946Z,5.27
2022-11-30T03:21:13.713Z,5.30
2022-11-30T03:23:40.896Z,5.20
2022-11-30T03:26:08.687Z,5.28
2022-11-30T03:28:36.559Z,5.07
2022-11-30T03:31:04.242Z,5.77
2022-11-30T03:33:31.138Z,5.07
2022-11-30T03:36:03.211Z,5.05
2022-11-30T03:38:30.281Z,4.72
2022-11-30T03:41:01.657Z,5.07
2022-11-30T03:43:28.815Z,5.93
2022-11-30T03:45:55.695Z,5.82
2022-11-30T03:48:22.826Z,5.50
2022-11-30T03:50:50.446Z,5.55
2022-11-30T03:53:18.428Z,5.93
2022-11-30T03:55:45.279Z,5.87
2022-11-30T03:58:12.138Z,5.68
2022-11-30T04:00:39.408Z,6.07
2022-11-30T04:03:06.094Z,5.45
2022-11-30T04:05:32.790Z,6.10
2022-11-30T04:07:59.417Z,5.40
2022-11-30T04:10:26.189Z,5.90
2022-11-30T04:12:52.934Z,5.20
2022-11-30T04:15:19.581Z,5.57
2022-11-30T04:17:46.365Z,4.70
2022-11-30T04:20:13.188Z,5.27
2022-11-30T04:22:39.886Z,4.50
2022-11-30T04:25:07.263Z,5.03
2022-11-30T04:27:33.945Z,5.22
2022-11-30T04:30:00.581Z,5.07
2022-11-30T04:32:27.263Z,4.77
2022-11-30T04:34:54.006Z,4.60
2022-11-30T04:37:20.718Z,4.35
2022-11-30T04:39:47.395Z,4.15
2022-11-30T04:42:14.111Z,4.10
2022-11-30T04:44:40.838Z,4.07
2022-11-30T04:47:07.488Z,4.28
2022-11-30T04:49:34.107Z,4.07
2022-11-30T04:52:00.763Z,4.10
2022-11-30T04:54:27.462Z,4.30
2022-11-30T04:56:54.235Z,4.67
2022-11-30T04:59:20.934Z,3.75
2022-11-30T05:01:47.651Z,4.35
2022-11-30T05:04:14.402Z,4.25
2022-11-30T05:06:41.097Z,3.83
2022-11-30T05:09:07.793Z,4.40
2022-11-30T05:11:34.476Z,3.75
2022-11-30T05:14:01.201Z,4.05
2022-11-30T05:16:28.052Z,3.92
2022-11-30T05:18:54.763Z,3.80
2022-11-30T05:21:21.397Z,4.00
2022-11-30T05:23:48.829Z,3.70
2022-11-30T05:26:16.139Z,4.18
2022-11-30T05:28:42.868Z,3.20
2022-11-30T05:31:09.647Z,3.60
2022-11-30T05:33:36.346Z,3.53
2022-11-30T05:36:08.791Z,3.50
2022-11-30T05:38:37.332Z,2.95
2022-11-30T05:41:04.141Z,3.42
2022-11-30T05:43:30.753Z,3.15
2022-11-30T05:46:01.974Z,3.17
2022-11-30T05:48:28.664Z,3.03
2022-11-30T05:50:55.550Z,2.80
2022-11-30T05:53:22.256Z,3.03
2022-11-30T05:55:48.987Z,3.45
2022-11-30T05:58:15.682Z,5.80
2022-11-30T06:00:42.371Z,5.97
2022-11-30T06:03:09.070Z,4.82
2022-11-30T06:05:37.788Z,5.55
2022-11-30T06:08:04.935Z,2.80
2022-11-30T06:10:31.552Z,2.90
2022-11-30T06:12:58.169Z,2.58
2022-11-30T06:15:24.874Z,2.78
2022-11-30T06:17:51.614Z,2.65
2022-11-30T06:20:18.387Z,2.42
2022-11-30T06:22:46.669Z,2.33
2022-11-30T06:25:14.251Z,2.80
2022-11-30T06:27:40.978Z,2.60
2022-11-30T06:30:09.319Z,3.03
2022-11-30T06:32:36.393Z,2.80
2022-11-30T06:35:03.111Z,2.43
2022-11-30T06:37:30.085Z,2.95
2022-11-30T06:40:12.302Z,3.25
2022-11-30T06:42:39.189Z,3.08
2022-11-30T06:45:06.978Z,2.40
2022-11-30T06:47:33.959Z,3.10
2022-11-30T06:50:00.690Z,2.67
2022-11-30T06:52:27.367Z,3.95
2022-11-30T06:54:54.171Z,3.78
2022-11-30T06:57:21.310Z,4.20
2022-11-30T06:59:47.939Z,5.93
2022-11-30T07:02:18.216Z,7.20
2022-11-30T07:04:45.390Z,5.63
2022-11-30T07:07:12.310Z,9.43
2022-11-30T07:09:39.023Z,6.05
2022-11-30T07:12:06.224Z,3.67
2022-11-30T07:14:32.899Z,2.63
2022-11-30T07:16:59.551Z,5.18
2022-11-30T07:19:26.304Z,6.70
2022-11-30T07:21:53.025Z,6.82
2022-11-30T07:24:38.518Z,6.37
2022-11-30T07:27:05.330Z,5.65
2022-11-30T07:29:32.070Z,7.00
2022-11-30T07:31:58.768Z,5.10
2022-11-30T07:34:25.754Z,4.97
2022-11-30T07:36:52.555Z,3.60
2022-11-30T07:39:19.261Z,2.95
2022-11-30T07:41:46.042Z,3.22
2022-11-30T07:44:12.718Z,2.83
2022-11-30T07:46:39.474Z,2.72
2022-11-30T07:49:07.897Z,2.80
2022-11-30T07:51:34.907Z,2.72
2022-11-30T07:54:01.920Z,2.80
2022-11-30T07:56:29.234Z,2.65
2022-11-30T07:58:58.418Z,2.47
2022-11-30T08:01:27.935Z,2.50
2022-11-30T08:03:55.020Z,2.03
2022-11-30T08:06:24.652Z,2.30
2022-11-30T08:08:53.600Z,2.63
2022-11-30T08:11:23.707Z,2.35
2022-11-30T08:13:50.608Z,2.27
2022-11-30T08:16:19.548Z,2.05
2022-11-30T08:18:47.548Z,3.22
2022-11-30T08:21:15.718Z,2.25
2022-11-30T08:23:44.758Z,2.45
2022-11-30T08:26:13.944Z,2.23
2022-11-30T08:28:41.487Z,2.60
2022-11-30T08:31:20.034Z,2.40
2022-11-30T08:33:46.998Z,2.60
2022-11-30T08:36:21.757Z,2.40
2022-11-30T08:38:51.926Z,2.50
2022-11-30T08:41:21.433Z,2.58
2022-11-30T08:43:52.103Z,2.30
2022-11-30T08:49:26.560Z,2.45
2022-11-30T08:54:46.640Z,3.28
2022-11-30T08:57:19.350Z,2.80
2022-11-30T08:59:46.848Z,3.08
2022-11-30T09:02:17.443Z,3.42
2022-11-30T09:04:48.607Z,2.93
2022-11-30T09:07:15.281Z,2.90
2022-11-30T09:09:42.025Z,2.80
2022-11-30T09:12:08.938Z,2.67
2022-11-30T09:14:35.604Z,2.92
2022-11-30T09:17:02.275Z,2.40
2022-11-30T09:19:28.996Z,2.05
2022-11-30T09:21:55.613Z,2.28
2022-11-30T09:24:22.291Z,2.33
2022-11-30T09:26:48.991Z,2.50
2022-11-30T09:29:15.692Z,2.13
2022-11-30T09:31:42.377Z,2.70
2022-11-30T09:34:11.436Z,2.22
2022-11-30T09:36:38.191Z,2.25
2022-11-30T09:39:04.919Z,2.13
2022-11-30T09:41:34.368Z,1.80
2022-11-30T09:44:49.204Z,2.60
2022-11-30T09:47:40.253Z,2.13
2022-11-30T09:50:14.898Z,2.47
2022-11-30T09:52:45.986Z,2.42
2022-11-30T09:55:22.409Z,2.17
2022-11-30T09:57:54.708Z,2.75
2022-11-30T10:00:23.510Z,2.38
2022-11-30T10:02:51.845Z,2.60
2022-11-30T10:05:27.073Z,3.10
2022-11-30T10:08:08.881Z,3.00
2022-11-30T10:10:59.086Z,2.80
2022-11-30T10:13:27.893Z,3.20
2022-11-30T10:16:00.675Z,2.90
2022-11-30T10:18:30.053Z,3.20
2022-11-30T10:21:15.599Z,3.07
2022-11-30T10:23:50.580Z,2.83
2022-11-30T10:26:34.024Z,2.78
2022-11-30T10:29:22.987Z,2.72
2022-11-30T10:53:58.350Z,2.35
2022-11-30T10:56:25.446Z,2.50
2022-11-30T10:59:04.167Z,2.42
2022-11-30T11:01:41.682Z,2.70
2022-11-30T11:04:20.650Z,2.88
2022-11-30T11:06:47.984Z,2.60
2022-11-30T11:09:27.421Z,2.57
2022-11-30T11:11:55.432Z,3.05
2022-11-30T11:14:24.108Z,3.40
2022-11-30T11:16:53.824Z,2.95
2022-11-30T11:19:36.869Z,2.55
2022-11-30T11:22:27.061Z,3.03
2022-11-30T11:24:56.217Z,3.00
2022-11-30T11:27:29.823Z,2.72
2022-11-30T11:30:10.797Z,3.33
2022-11-30T11:32:37.504Z,2.60
2022-11-30T11:35:26.082Z,3.07
2022-11-30T11:37:52.741Z,2.58
2022-11-30T11:40:20.875Z,2.85
2022-11-30T11:42:54.827Z,2.90
2022-11-30T11:45:26.110Z,3.10
2022-11-30T11:48:11.767Z,3.00
2022-11-30T11:53:36.009Z,3.30
2022-11-30T11:56:18.434Z,2.90
2022-11-30T11:58:55.358Z,2.97
2022-11-30T12:01:39.675Z,2.90
2022-11-30T12:04:19.860Z,3.03
2022-11-30T12:06:46.653Z,3.08
2022-11-30T12:09:21.159Z,3.05
2022-11-30T12:11:49.120Z,3.22
2022-11-30T12:14:18.499Z,3.30
2022-11-30T12:16:45.151Z,3.78
2022-11-30T12:19:21.953Z,2.83
2022-11-30T12:22:07.218Z,3.50
2022-11-30T12:25:04.270Z,3.17
2022-11-30T12:27:49.095Z,3.40
2022-11-30T12:30:25.008Z,3.55
2022-11-30T12:33:06.998Z,3.28
2022-11-30T12:35:40.077Z,3.25
2022-11-30T12:38:31.430Z,3.00
2022-11-30T12:41:19.308Z,3.10
2022-11-30T12:43:54.513Z,2.97
2022-11-30T12:46:30.130Z,3.00
2022-11-30T12:49:32.113Z,3.15
2022-11-30T12:52:33.608Z,3.13
2022-11-30T12:55:06.517Z,3.20
2022-11-30T12:57:39.281Z,3.30
2022-11-30T13:00:12.804Z,3.58
2022-11-30T13:03:05.576Z,3.20
2022-11-30T13:05:43.491Z,3.60
2022-11-30T13:08:24.037Z,3.73
2022-11-30T13:10:54.750Z,3.50
2022-11-30T13:13:25.642Z,3.47
2022-11-30T13:15:52.463Z,3.58
2022-11-30T13:18:20.908Z,3.40
2022-11-30T13:20:54.186Z,3.70
2022-11-30T13:23:36.095Z,3.80
2022-11-30T13:26:13.539Z,3.40
2022-11-30T13:28:50.843Z,3.92
2022-11-30T13:31:34.033Z,3.92
2022-11-30T13:34:01.002Z,4.27
2022-11-30T13:36:41.497Z,4.75
2022-11-30T13:39:17.410Z,4.03
2022-11-30T13:41:46.576Z,4.20
2022-11-30T13:44:29.593Z,3.97
2022-11-30T13:46:56.443Z,4.17
2022-11-30T13:49:28.199Z,4.28
2022-11-30T13:52:20.558Z,3.88
2022-11-30T13:54:47.321Z,4.40
2022-11-30T13:57:29.429Z,3.75
2022-11-30T14:00:30.816Z,3.80
2022-11-30T14:03:20.005Z,3.83
2022-11-30T14:05:47.517Z,4.15
2022-11-30T14:08:23.242Z,3.50
2022-11-30T14:11:14.448Z,3.55
2022-11-30T14:13:42.043Z,3.77
2022-11-30T14:16:25.267Z,3.90
2022-11-30T14:18:52.177Z,3.90
2022-11-30T14:21:24.261Z,4.00
2022-11-30T14:24:00.965Z,4.28
2022-11-30T14:26:33.134Z,4.07
2022-11-30T14:29:16.827Z,4.05
2022-11-30T14:31:59.828Z,3.90
2022-11-30T14:34:32.013Z,3.40
2022-11-30T14:37:03.060Z,3.92
2022-11-30T14:39:35.395Z,3.40
2022-11-30T14:42:03.751Z,3.30
2022-11-30T14:44:39.830Z,4.07
2022-11-30T14:47:16.606Z,3.85
2022-11-30T14:49:48.106Z,3.50
2022-11-30T14:52:32.293Z,3.27
2022-11-30T14:55:21.135Z,3.53
2022-11-30T14:58:12.766Z,3.30
2022-11-30T15:00:41.698Z,3.70
2022-11-30T15:03:19.320Z,3.42
2022-11-30T15:05:46.072Z,3.27
2022-11-30T15:08:14.374Z,3.70
2022-11-30T15:10:41.678Z,3.58
2022-11-30T15:13:13.170Z,3.72
2022-11-30T15:15:49.955Z,2.95
2022-11-30T15:18:18.795Z,2.60
2022-11-30T15:20:53.958Z,3.20
2022-11-30T15:23:20.702Z,3.65
2022-11-30T15:25:50.342Z,3.50
2022-11-30T15:28:23.278Z,3.10
2022-11-30T15:30:56.449Z,3.10
2022-11-30T15:33:24.718Z,3.65
2022-11-30T15:36:18.635Z,2.78
2022-11-30T15:38:41.442Z,3.35
2022-11-30T15:41:18.543Z,3.35
2022-11-30T15:43:49.530Z,3.03
2022-11-30T15:46:45.999Z,3.15
2022-11-30T15:49:12.850Z,2.80
2022-11-30T15:51:41.123Z,3.47
2022-11-30T15:54:08.066Z,2.75
2022-11-30T15:56:34.960Z,3.20
2022-11-30T15:59:05.758Z,3.80
2022-11-30T16:02:02.267Z,3.28
2022-11-30T16:04:57.768Z,2.90
2022-11-30T16:07:25.588Z,3.35
2022-11-30T16:09:52.331Z,3.30
2022-11-30T16:12:28.283Z,2.78
2022-11-30T16:14:55.031Z,2.63
2022-11-30T16:17:21.893Z,3.25
2022-11-30T16:19:49.259Z,3.25
2022-11-30T16:22:16.714Z,3.13
2022-11-30T16:24:43.433Z,4.88
2022-11-30T16:27:17.437Z,3.70
2022-11-30T16:29:49.211Z,3.85
2022-11-30T16:32:19.218Z,3.70
2022-11-30T16:34:47.879Z,3.40
2022-11-30T16:37:14.747Z,3.30
2022-11-30T16:39:41.480Z,3.25
2022-11-30T16:42:11.796Z,3.00
2022-11-30T16:44:38.639Z,2.90
2022-11-30T16:47:05.383Z,3.13
2022-11-30T16:49:32.055Z,3.25
2022-11-30T16:51:58.834Z,3.38
2022-11-30T16:54:25.542Z,3.60
2022-11-30T16:56:52.283Z,3.70
2022-11-30T16:59:19.012Z,3.50
2022-11-30T17:01:47.312Z,3.92
2022-11-30T17:04:23.210Z,4.00
2022-11-30T17:06:52.139Z,5.53
2022-11-30T17:09:21.252Z,6.63
2022-11-30T17:11:52.361Z,5.90
2022-11-30T17:14:22.364Z,5.63
2022-11-30T17:16:49.158Z,4.90
2022-11-30T17:19:16.012Z,4.63
2022-11-30T17:21:44.518Z,5.05
2022-11-30T17:24:12.466Z,4.70
2022-11-30T17:26:39.148Z,5.65
2022-11-30T17:29:06.159Z,5.38
2022-11-30T17:31:32.913Z,4.63
2022-11-30T17:33:59.572Z,5.60
2022-11-30T17:36:27.031Z,4.30
2022-11-30T17:38:53.691Z,4.28
2022-11-30T17:41:21.950Z,3.65
2022-11-30T17:43:49.144Z,3.75
2022-11-30T17:46:17.942Z,3.97
2022-11-30T17:48:44.877Z,3.90
2022-11-30T17:51:12.170Z,3.75
2022-11-30T17:53:39.366Z,2.80
2022-11-30T17:56:08.498Z,2.97
2022-11-30T17:58:43.074Z,3.20
2022-11-30T18:01:25.866Z,3.87
2022-11-30T18:03:53.534Z,4.47
2022-11-30T18:06:20.346Z,7.80
2022-11-30T18:08:47.270Z,8.45
2022-11-30T18:11:16.654Z,6.75
2022-11-30T18:13:43.377Z,8.70
2022-11-30T18:16:12.412Z,9.35
2022-11-30T18:18:44.206Z,10.18
2022-11-30T18:21:15.383Z,10.35
2022-11-30T18:23:42.174Z,10.80
2022-11-30T18:26:13.622Z,9.60
2022-11-30T18:28:40.749Z,8.85
2022-11-30T18:31:07.703Z,8.68
2022-11-30T18:33:35.967Z,8.02
2022-11-30T18:36:03.312Z,7.10
2022-11-30T18:38:35.854Z,8.10
2022-11-30T18:41:04.629Z,7.03
2022-11-30T18:43:33.442Z,6.30
2022-11-30T18:46:10.809Z,11.57
2022-11-30T18:48:38.315Z,7.40
2022-11-30T18:51:11.653Z,4.40
2022-11-30T18:53:38.248Z,4.30
2022-11-30T18:56:13.681Z,5.68
2022-11-30T18:58:41.415Z,8.07
2022-11-30T19:01:16.184Z,9.52
2022-11-30T19:03:43.212Z,10.30
2022-11-30T19:06:10.865Z,8.77
2022-11-30T19:08:39.191Z,9.00
2022-11-30T19:11:08.268Z,8.38
2022-11-30T19:13:35.392Z,7.90
2022-11-30T19:16:03.617Z,6.07
2022-11-30T19:18:30.370Z,6.85
2022-11-30T19:20:57.117Z,9.10
2022-11-30T19:23:23.938Z,13.20
2022-11-30T19:25:50.826Z,15.32
2022-11-30T19:28:17.930Z,14.27
2022-11-30T19:30:44.828Z,13.25
2022-11-30T19:33:12.460Z,12.35
2022-11-30T19:35:39.157Z,11.60
2022-11-30T19:38:05.847Z,11.05
2022-11-30T19:40:32.676Z,11.23
2022-11-30T19:42:59.450Z,11.93
2022-11-30T19:45:26.090Z,10.32
2022-11-30T19:47:52.738Z,10.82
2022-11-30T19:50:19.628Z,10.38
2022-11-30T19:52:46.350Z,11.67
2022-11-30T19:55:13.073Z,12.23
2022-11-30T19:57:39.722Z,13.15
2022-11-30T20:00:07.282Z,14.02
2022-11-30T20:02:34.779Z,13.85
2022-11-30T20:05:01.479Z,15.03
2022-11-30T20:07:28.389Z,17.42
2022-11-30T20:09:55.026Z,16.35
2022-11-30T20:12:21.726Z,15.95
2022-11-30T20:14:50.239Z,15.43
2022-11-30T20:17:17.134Z,15.37
2022-11-30T20:19:43.861Z,15.43
2022-11-30T20:22:10.643Z,14.35
2022-11-30T20:24:37.356Z,14.27
2022-11-30T20:27:04.238Z,14.13
2022-11-30T20:29:31.032Z,14.53
2022-11-30T20:31:57.781Z,13.95
2022-11-30T20:34:27.494Z,14.18
2022-11-30T20:36:57.911Z,14.98
2022-11-30T20:39:24.639Z,19.17
2022-11-30T20:41:51.399Z,23.27
2022-11-30T20:44:18.126Z,21.40
2022-11-30T20:46:44.976Z,20.20
2022-11-30T20:49:15.466Z,19.67
2022-11-30T20:51:42.182Z,17.88
2022-11-30T20:54:10.016Z,18.00
2022-11-30T20:56:37.497Z,24.55
2022-11-30T20:59:07.062Z,23.60
2022-11-30T21:01:34.064Z,27.08
2022-11-30T21:04:01.262Z,29.13
2022-11-30T21:06:31.202Z,26.63
2022-11-30T21:08:58.709Z,28.77
2022-11-30T21:11:26.020Z,29.48
2022-11-30T21:13:52.778Z,30.15
2022-11-30T21:16:27.179Z,26.58
2022-11-30T21:18:56.250Z,28.10
2022-11-30T21:21:25.439Z,28.25
2022-11-30T21:23:52.506Z,26.75
2022-11-30T21:26:24.059Z,28.08
2022-11-30T21:28:53.708Z,27.17
2022-11-30T21:31:21.403Z,27.23
2022-11-30T21:33:52.822Z,25.23
2022-11-30T21:36:21.648Z,26.63
2022-11-30T21:38:48.374Z,27.98
2022-11-30T21:41:15.115Z,27.75
2022-11-30T21:43:42.286Z,28.07
2022-11-30T21:46:12.750Z,27.95
2022-11-30T21:48:41.098Z,26.58
2022-11-30T21:51:17.911Z,26.95
2022-11-30T21:53:46.533Z,25.85
2022-11-30T21:56:15.703Z,27.80
2022-11-30T21:58:44.496Z,27.58
2022-11-30T22:01:17.377Z,25.10
2022-11-30T22:03:44.268Z,25.25
2022-11-30T22:06:13.361Z,26.20
2022-11-30T22:08:41.206Z,24.37
2022-11-30T22:11:10.891Z,24.50
2022-11-30T22:13:37.938Z,24.08
2022-11-30T22:16:07.486Z,25.35
2022-11-30T22:18:34.745Z,25.75
2022-11-30T22:21:07.467Z,26.13
2022-11-30T22:23:35.347Z,25.55
2022-11-30T22:26:07.888Z,24.88
2022-11-30T22:28:34.675Z,25.60
2022-11-30T22:31:05.716Z,28.20
2022-11-30T22:33:34.083Z,25.83
2022-11-30T22:36:01.939Z,27.27
2022-11-30T22:38:29.498Z,25.60
2022-11-30T22:41:06.652Z,27.13
2022-11-30T22:43:33.768Z,25.63
2022-11-30T22:46:20.898Z,27.30
2022-11-30T22:48:47.594Z,24.63
2022-11-30T22:51:15.498Z,24.23
2022-11-30T22:53:42.688Z,23.20
2022-11-30T22:56:15.693Z,22.52
2022-11-30T22:58:43.695Z,20.70
2022-11-30T23:01:13.416Z,21.23
2022-11-30T23:03:41.621Z,20.20
2022-11-30T23:06:09.090Z,19.65
2022-11-30T23:08:36.850Z,19.70
2022-11-30T23:11:06.004Z,16.40
2022-11-30T23:13:32.910Z,15.93
2022-11-30T23:16:00.057Z,15.45
2022-11-30T23:18:27.990Z,15.73
2022-11-30T23:20:57.518Z,11.93
2022-11-30T23:23:24.750Z,11.77
2022-11-30T23:25:51.375Z,12.15
2022-11-30T23:28:18.016Z,12.48
2022-11-30T23:30:44.674Z,12.70
2022-11-30T23:33:11.368Z,12.77
2022-11-30T23:35:42.623Z,12.53
2022-11-30T23:38:10.794Z,12.65
2022-11-30T23:40:37.427Z,12.65
2022-11-30T23:43:04.081Z,12.07
2022-11-30T23:45:30.747Z,12.35
2022-11-30T23:47:57.494Z,12.43
2022-11-30T23:50:24.198Z,13.68
2022-11-30T23:52:50.833Z,11.70
2022-11-30T23:55:17.671Z,12.20
2022-11-30T23:57:44.338Z,11.45
